createdAt,value
2019-02-20T00:00:23.279Z,72.75
2019-02-20T00:02:51.857Z,73.28
2019-02-20T00:05:20.432Z,72.15
2019-02-20T00:07:49.019Z,71.96
2019-02-20T00:10:17.600Z,72.60
2019-02-20T00:12:46.181Z,73.27
2019-02-20T00:15:14.763Z,72.83
2019-02-20T00:17:43.379Z,72.78
2019-02-20T00:20:12.767Z,72.44
2019-02-20T00:22:41.355Z,72.69
2019-02-20T00:25:11.040Z,72.31
2019-02-20T00:27:39.623Z,72.35
2019-02-20T00:30:10.721Z,71.51
2019-02-20T00:32:39.292Z,71.80
2019-02-20T00:35:08.377Z,71.92
2019-02-20T00:37:36.996Z,71.55
2019-02-20T00:40:10.700Z,71.38
2019-02-20T00:42:39.281Z,71.94
2019-02-20T00:45:30.349Z,72.04
2019-02-20T00:48:09.291Z,72.24
2019-02-20T00:50:39.442Z,73.03
2019-02-20T00:53:13.424Z,72.51
2019-02-20T00:55:42.007Z,73.31
2019-02-20T00:58:11.513Z,72.84
2019-02-20T01:00:40.093Z,73.59
2019-02-20T01:03:09.538Z,72.64
2019-02-20T01:05:38.268Z,73.04
2019-02-20T01:08:06.915Z,72.78
2019-02-20T01:10:35.715Z,72.23
2019-02-20T01:13:04.458Z,72.21
2019-02-20T01:15:33.103Z,73.14
2019-02-20T01:18:01.691Z,72.69
2019-02-20T01:20:30.323Z,72.82
2019-02-20T01:23:00.121Z,72.22
2019-02-20T01:25:29.186Z,72.25
2019-02-20T01:27:57.767Z,72.21
2019-02-20T01:30:26.347Z,72.47
2019-02-20T01:32:54.935Z,71.64
2019-02-20T01:35:23.520Z,71.76
2019-02-20T01:37:52.095Z,71.97
2019-02-20T01:40:20.719Z,72.14
2019-02-20T01:42:49.297Z,71.67
2019-02-20T01:45:17.920Z,72.70
2019-02-20T01:47:46.537Z,72.02
2019-02-20T01:50:15.163Z,72.03
2019-02-20T01:52:43.747Z,71.33
2019-02-20T01:55:13.140Z,69.99
2019-02-20T01:57:41.717Z,69.85
2019-02-20T02:00:12.649Z,70.93
2019-02-20T02:02:41.230Z,70.51
2019-02-20T02:05:15.283Z,70.11
2019-02-20T02:07:41.184Z,71.55
2019-02-20T02:10:10.403Z,71.14
2019-02-20T02:12:38.982Z,72.04
2019-02-20T02:15:09.313Z,70.80
2019-02-20T02:17:37.888Z,70.93
2019-02-20T02:20:08.767Z,71.08
2019-02-20T02:22:37.384Z,71.39
2019-02-20T02:25:06.360Z,71.04
2019-02-20T02:27:34.940Z,69.84
2019-02-20T02:30:04.516Z,69.94
2019-02-20T02:32:33.099Z,70.75
2019-02-20T02:35:01.711Z,70.64
2019-02-20T02:37:30.288Z,70.36
2019-02-20T02:39:58.863Z,70.10
2019-02-20T02:42:27.500Z,71.18
2019-02-20T02:44:56.174Z,70.91
2019-02-20T02:47:24.751Z,70.64
2019-02-20T02:49:53.330Z,71.13
2019-02-20T02:52:22.077Z,70.54
2019-02-20T02:54:50.692Z,70.22
2019-02-20T02:57:19.268Z,71.19
2019-02-20T02:59:47.918Z,70.54
2019-02-20T03:02:16.505Z,71.03
2019-02-20T03:04:45.107Z,71.09
2019-02-20T03:07:13.687Z,71.11
2019-02-20T03:09:42.285Z,72.02
2019-02-20T03:12:11.069Z,72.18
2019-02-20T03:14:39.666Z,71.71
2019-02-20T03:17:08.471Z,71.67
2019-02-20T03:19:37.050Z,72.11
2019-02-20T03:22:05.631Z,72.00
2019-02-20T03:24:34.214Z,72.71
2019-02-20T03:27:02.830Z,71.71
2019-02-20T03:29:31.411Z,71.70
2019-02-20T03:31:59.997Z,72.14
2019-02-20T03:34:28.595Z,72.43
2019-02-20T03:36:57.162Z,72.26
2019-02-20T03:39:25.735Z,72.77
2019-02-20T03:41:54.312Z,72.89
2019-02-20T03:44:22.894Z,72.31
2019-02-20T03:46:51.507Z,72.33
2019-02-20T03:49:20.173Z,73.30
2019-02-20T03:51:48.750Z,73.64
2019-02-20T03:54:17.804Z,73.30
2019-02-20T03:56:46.383Z,73.89
2019-02-20T03:59:14.991Z,73.42
2019-02-20T04:01:43.616Z,72.73
2019-02-20T04:04:12.200Z,72.94
2019-02-20T04:06:40.833Z,73.75
2019-02-20T04:09:10.468Z,74.73
2019-02-20T04:11:39.036Z,74.18
2019-02-20T04:14:08.365Z,74.13
2019-02-20T04:16:36.950Z,73.88
2019-02-20T04:19:05.542Z,73.70
2019-02-20T04:21:34.122Z,74.70
2019-02-20T04:24:03.126Z,74.68
2019-02-20T04:26:31.880Z,74.65
2019-02-20T04:29:00.512Z,75.16
2019-02-20T04:31:29.080Z,75.29
2019-02-20T04:33:57.664Z,75.69
2019-02-20T04:36:26.247Z,74.44
2019-02-20T04:38:54.822Z,74.14
2019-02-20T04:41:23.424Z,75.06
2019-02-20T04:43:52.054Z,74.97
2019-02-20T04:46:20.662Z,74.95
2019-02-20T04:48:49.239Z,74.43
2019-02-20T04:51:17.865Z,73.93
2019-02-20T04:53:46.486Z,74.61
2019-02-20T04:56:15.167Z,74.18
2019-02-20T04:58:43.951Z,74.76
2019-02-20T05:01:12.531Z,74.92
2019-02-20T05:03:41.113Z,74.18
2019-02-20T05:06:10.233Z,75.16
2019-02-20T05:08:38.811Z,74.79
2019-02-20T05:11:07.715Z,74.35
2019-02-20T05:13:36.297Z,75.31
2019-02-20T05:16:04.895Z,75.16
2019-02-20T05:18:33.476Z,74.33
2019-02-20T05:21:02.125Z,74.93
2019-02-20T05:23:30.704Z,74.91
2019-02-20T05:25:59.326Z,75.27
2019-02-20T05:28:27.908Z,74.82
2019-02-20T05:30:56.530Z,75.02
2019-02-20T05:33:25.111Z,74.70
2019-02-20T05:35:53.710Z,74.80
2019-02-20T05:38:22.274Z,74.99
2019-02-20T05:40:50.851Z,74.95
2019-02-20T05:43:19.437Z,74.55
2019-02-20T05:45:48.008Z,75.48
2019-02-20T05:48:16.609Z,76.11
2019-02-20T05:50:45.187Z,75.65
2019-02-20T05:53:13.833Z,75.35
2019-02-20T05:55:42.539Z,75.20
2019-02-20T05:58:11.532Z,75.20
2019-02-20T06:00:40.121Z,75.20
2019-02-20T06:03:09.024Z,75.05
2019-02-20T06:05:37.605Z,73.84
2019-02-20T06:08:06.261Z,74.29
2019-02-20T06:10:34.838Z,75.00
2019-02-20T06:13:03.430Z,74.90
2019-02-20T06:15:32.033Z,74.00
2019-02-20T06:18:00.617Z,74.62
2019-02-20T06:20:29.200Z,75.46
2019-02-20T06:22:57.776Z,75.58
2019-02-20T06:25:26.366Z,74.88
2019-02-20T06:27:54.944Z,75.16
2019-02-20T06:30:23.528Z,75.26
2019-02-20T06:32:52.157Z,75.06
2019-02-20T06:35:20.735Z,74.80
2019-02-20T06:37:49.316Z,74.80
2019-02-20T06:40:17.900Z,74.42
2019-02-20T06:42:46.561Z,73.65
2019-02-20T06:45:15.140Z,74.84
2019-02-20T06:47:43.722Z,75.01
2019-02-20T06:50:13.255Z,75.13
2019-02-20T06:52:41.921Z,74.57
2019-02-20T06:55:12.422Z,73.39
2019-02-20T06:57:40.991Z,74.06
2019-02-20T07:00:13.066Z,74.21
2019-02-20T07:02:41.684Z,73.32
2019-02-20T07:05:34.492Z,73.95
2019-02-20T07:08:41.471Z,73.66
2019-02-20T07:11:32.389Z,74.34
2019-02-20T07:14:15.903Z,74.59
2019-02-20T07:17:02.439Z,73.67
2019-02-20T07:19:46.300Z,73.71
2019-02-20T07:22:29.899Z,73.01
2019-02-20T07:25:03.335Z,73.65
2019-02-20T07:27:46.935Z,73.23
2019-02-20T07:30:15.528Z,73.54
2019-02-20T07:32:44.094Z,73.38
2019-02-20T07:35:12.778Z,72.70
2019-02-20T07:37:41.365Z,73.07
2019-02-20T07:40:10.266Z,73.24
2019-02-20T07:42:38.852Z,71.66
2019-02-20T07:45:09.285Z,71.00
2019-02-20T07:47:37.853Z,70.47
2019-02-20T07:50:09.339Z,71.15
2019-02-20T07:52:37.919Z,74.27
2019-02-20T07:55:13.345Z,75.35
2019-02-20T07:57:37.634Z,74.96
2019-02-20T08:00:11.744Z,74.63
2019-02-20T08:02:40.326Z,74.27
2019-02-20T08:05:09.122Z,74.57
2019-02-20T08:07:37.700Z,72.38
2019-02-20T08:10:09.404Z,70.94
2019-02-20T08:12:37.984Z,70.21
2019-02-20T08:15:09.073Z,68.21
2019-02-20T08:17:37.657Z,68.29
2019-02-20T08:20:08.443Z,70.13
2019-02-20T08:22:37.021Z,71.28
2019-02-20T08:25:06.612Z,71.42
2019-02-20T08:27:35.205Z,70.85
2019-02-20T08:30:04.290Z,70.69
2019-02-20T08:32:32.903Z,71.30
2019-02-20T08:35:01.485Z,70.50
2019-02-20T08:37:30.110Z,69.83
2019-02-20T08:39:58.694Z,67.99
2019-02-20T08:42:27.278Z,66.64
2019-02-20T08:44:55.917Z,67.72
2019-02-20T08:47:24.498Z,65.71
2019-02-20T08:49:54.433Z,65.08
2019-02-20T08:52:23.134Z,64.64
2019-02-20T08:54:51.715Z,63.20
2019-02-20T08:57:20.298Z,63.20
2019-02-20T08:59:49.081Z,63.03
2019-02-20T09:02:17.655Z,63.47
2019-02-20T09:04:46.244Z,63.22
2019-02-20T09:07:14.818Z,63.89
2019-02-20T09:09:43.507Z,63.85
2019-02-20T09:12:12.087Z,63.88
2019-02-20T09:14:40.663Z,63.43
2019-02-20T09:17:10.358Z,64.00
2019-02-20T09:19:38.938Z,63.62
2019-02-20T09:22:08.985Z,63.08
2019-02-20T09:24:37.576Z,63.60
2019-02-20T09:27:06.151Z,63.39
2019-02-20T09:29:34.733Z,63.19
2019-02-20T09:32:03.324Z,64.16
2019-02-20T09:34:31.905Z,63.66
2019-02-20T09:37:00.492Z,63.68
2019-02-20T09:39:36.649Z,62.83
2019-02-20T09:42:06.576Z,64.16
2019-02-20T09:44:38.356Z,64.71
2019-02-20T09:47:07.204Z,62.72
2019-02-20T09:49:35.851Z,63.37
2019-02-20T09:52:04.431Z,62.79
2019-02-20T09:54:33.177Z,62.38
2019-02-20T09:57:01.818Z,61.24
2019-02-20T09:59:30.779Z,60.75
2019-02-20T11:00:24.881Z,56.17
2019-02-20T11:31:02.688Z,56.20
2019-02-20T11:33:31.256Z,54.16
2019-02-20T11:35:59.898Z,54.85
2019-02-20T11:38:28.481Z,55.09
2019-02-20T11:40:57.068Z,53.24
2019-02-20T11:43:25.665Z,53.94
2019-02-20T11:45:54.374Z,51.94
2019-02-20T11:48:22.959Z,53.74
2019-02-20T11:50:51.607Z,51.40
2019-02-20T11:53:20.197Z,51.90
2019-02-20T11:55:48.789Z,52.04
2019-02-20T11:58:17.372Z,52.41
2019-02-20T12:00:45.961Z,52.23
2019-02-20T12:03:14.585Z,53.42
2019-02-20T12:05:43.385Z,52.69
2019-02-20T12:08:11.999Z,52.09
2019-02-20T12:10:40.682Z,50.21
2019-02-20T12:13:09.440Z,51.85
2019-02-20T12:15:38.506Z,49.14
2019-02-20T12:18:07.978Z,49.33
2019-02-20T12:20:36.565Z,49.73
2019-02-20T12:23:05.200Z,50.25
2019-02-20T12:25:35.444Z,48.68
2019-02-20T12:28:04.030Z,49.11
2019-02-20T12:30:32.622Z,49.54
2019-02-20T12:33:01.205Z,49.29
2019-02-20T12:35:29.816Z,49.96
2019-02-20T12:37:58.406Z,49.50
2019-02-20T12:40:26.996Z,49.74
2019-02-20T12:45:24.284Z,50.39
2019-02-20T12:47:52.923Z,50.11
2019-02-20T12:50:21.526Z,49.69
2019-02-20T12:56:22.650Z,52.07
2019-02-20T13:09:40.519Z,50.64
2019-02-20T13:12:09.760Z,48.62
2019-02-20T13:14:38.385Z,49.09
2019-02-20T13:17:06.977Z,48.92
2019-02-20T13:19:35.572Z,48.25
2019-02-20T13:22:04.164Z,51.00
2019-02-20T13:24:32.817Z,48.98
2019-02-20T13:27:07.649Z,50.27
2019-02-20T13:29:31.778Z,50.21
2019-02-20T13:32:00.374Z,48.74
2019-02-20T13:34:29.002Z,48.29
2019-02-20T13:36:57.713Z,48.33
2019-02-20T13:39:26.292Z,47.01
2019-02-20T13:41:54.897Z,45.10
2019-02-20T13:44:23.648Z,45.81
2019-02-20T13:46:52.718Z,44.22
2019-02-20T13:49:21.350Z,44.02
2019-02-20T13:51:49.946Z,43.41
2019-02-20T13:54:18.529Z,43.14
2019-02-20T13:56:47.179Z,42.40
2019-02-20T13:59:15.813Z,43.04
2019-02-20T14:05:43.094Z,41.54
2019-02-20T14:08:11.964Z,42.99
2019-02-20T15:18:02.519Z,36.74
2019-02-20T15:43:31.181Z,40.44
2019-02-20T15:45:59.778Z,39.68
2019-02-20T15:48:34.084Z,41.35
2019-02-20T16:02:04.861Z,40.71
2019-02-20T16:04:33.451Z,40.45
2019-02-20T16:07:02.122Z,39.20
2019-02-20T16:09:32.263Z,39.70
2019-02-20T16:12:00.861Z,39.12
2019-02-20T16:14:29.745Z,39.02
2019-02-20T16:16:58.431Z,40.78
2019-02-20T16:19:27.031Z,41.22
2019-02-20T16:21:55.622Z,41.49
2019-02-20T16:24:24.213Z,42.04
2019-02-20T16:26:52.806Z,42.08
2019-02-20T16:29:21.404Z,42.59
2019-02-20T16:31:50.006Z,41.40
2019-02-20T16:34:18.597Z,42.68
2019-02-20T16:36:49.139Z,42.92
2019-02-20T16:39:17.560Z,43.12
2019-02-20T16:41:47.224Z,41.37
2019-02-20T16:44:15.827Z,42.08
2019-02-20T16:46:44.686Z,42.54
2019-02-20T16:49:13.486Z,41.04
2019-02-20T16:51:42.073Z,41.50
2019-02-20T16:54:10.658Z,45.31
2019-02-20T16:56:40.249Z,46.94
2019-02-20T16:59:09.309Z,47.61
2019-02-20T17:01:37.898Z,47.93
2019-02-20T17:04:07.255Z,48.41
2019-02-20T17:06:35.921Z,48.77
2019-02-20T17:09:05.719Z,49.63
2019-02-20T17:11:34.342Z,50.21
2019-02-20T17:14:02.922Z,50.85
2019-02-20T17:16:31.608Z,50.91
2019-02-20T17:19:00.570Z,51.30
2019-02-20T17:21:29.161Z,51.26
2019-02-20T17:23:57.785Z,51.37
2019-02-20T17:26:26.433Z,51.97
2019-02-20T17:28:55.223Z,52.65
2019-02-20T17:31:23.820Z,53.07
2019-02-20T17:33:52.457Z,53.21
2019-02-20T17:36:21.082Z,53.58
2019-02-20T17:38:49.739Z,53.54
2019-02-20T17:41:18.330Z,53.82
2019-02-20T17:43:47.011Z,52.96
2019-02-20T17:46:15.696Z,52.32
2019-02-20T17:48:44.293Z,52.00
2019-02-20T17:51:13.399Z,51.73
2019-02-20T17:53:41.999Z,50.82
2019-02-20T17:56:12.671Z,52.13
2019-02-20T17:58:42.660Z,50.58
2019-02-20T18:01:12.939Z,53.67
2019-02-20T18:03:41.555Z,52.52
2019-02-20T18:06:11.166Z,53.52
2019-02-20T18:08:39.757Z,53.14
2019-02-20T18:11:08.950Z,53.38
2019-02-20T18:13:37.537Z,53.84
2019-02-20T18:16:07.154Z,54.22
2019-02-20T18:18:35.745Z,54.96
2019-02-20T18:21:04.333Z,55.63
2019-02-20T18:23:32.921Z,56.10
2019-02-20T18:26:01.563Z,56.92
2019-02-20T18:28:30.144Z,57.46
2019-02-20T18:30:58.747Z,57.69
2019-02-20T18:33:27.325Z,57.19
2019-02-20T18:35:55.917Z,58.37
2019-02-20T19:45:00.474Z,59.13
2019-02-20T19:47:47.210Z,59.13
2019-02-20T19:50:36.853Z,59.48
2019-02-20T19:53:20.608Z,59.47
2019-02-20T19:55:55.103Z,59.54
2019-02-20T19:58:43.266Z,59.19
2019-02-20T20:01:34.264Z,58.56
2019-02-20T20:04:12.113Z,59.35
2019-02-20T20:06:54.090Z,60.15
2019-02-20T20:09:28.839Z,60.27
2019-02-20T20:12:33.875Z,61.08
2019-02-20T20:15:17.895Z,61.30
2019-02-20T20:18:01.920Z,60.83
2019-02-20T20:22:02.548Z,60.88
2019-02-20T20:24:46.514Z,61.37
2019-02-20T20:27:33.497Z,62.16
2019-02-20T20:30:38.447Z,62.01
2019-02-20T20:33:34.857Z,62.50
2019-02-20T20:36:18.677Z,61.88
2019-02-20T20:38:56.709Z,61.40
2019-02-20T20:41:36.385Z,61.14
2019-02-20T20:44:36.799Z,61.63
2019-02-20T20:47:11.413Z,61.72
2019-02-20T20:49:43.390Z,61.80
2019-02-20T20:52:14.094Z,62.69
2019-02-20T20:55:01.430Z,62.72
2019-02-20T20:57:51.639Z,63.11
2019-02-20T21:00:28.039Z,63.59
2019-02-20T21:02:58.321Z,63.70
2019-02-20T21:05:46.782Z,63.50
2019-02-20T21:08:20.168Z,62.96
2019-02-20T21:10:52.925Z,62.47
2019-02-20T21:13:31.919Z,62.81
2019-02-20T21:16:35.616Z,62.73
2019-02-20T21:19:21.558Z,62.33
2019-02-20T21:22:21.910Z,62.46
2019-02-20T21:25:14.401Z,63.86
2019-02-20T21:28:13.155Z,64.63
2019-02-20T21:30:52.360Z,64.47
2019-02-20T21:33:53.218Z,64.51
2019-02-20T21:36:35.890Z,64.50
2019-02-20T21:39:12.222Z,64.75
2019-02-20T21:41:42.584Z,65.05
2019-02-20T21:44:12.756Z,65.58
2019-02-20T21:47:05.668Z,65.50
2019-02-20T21:49:44.960Z,65.69
2019-02-20T21:52:44.544Z,65.80
2019-02-20T21:55:26.818Z,65.75
2019-02-20T21:58:09.176Z,65.02
2019-02-20T22:00:51.192Z,65.13
2019-02-20T22:03:24.248Z,65.36
2019-02-20T22:06:24.596Z,65.28
2019-02-20T22:09:04.188Z,65.57
2019-02-20T22:11:46.215Z,65.52
2019-02-20T22:14:25.057Z,65.60
2019-02-20T22:16:57.764Z,65.45
2019-02-20T22:19:45.882Z,65.33
2019-02-20T22:22:49.306Z,65.36
2019-02-20T22:25:28.847Z,65.93
2019-02-20T22:28:04.817Z,66.87
2019-02-20T22:30:51.864Z,66.83
2019-02-20T22:33:24.666Z,66.93
2019-02-20T22:35:57.745Z,66.73
2019-02-20T22:38:55.067Z,67.02
2019-02-20T22:41:43.442Z,66.80
2019-02-20T22:44:48.345Z,67.18
2019-02-20T22:47:45.779Z,67.05
2019-02-20T22:50:43.390Z,67.40
2019-02-20T22:53:29.768Z,66.98
2019-02-20T22:56:13.808Z,67.34
2019-02-20T22:58:53.059Z,67.46
2019-02-20T23:01:32.249Z,67.76
2019-02-20T23:04:26.283Z,67.68
2019-02-20T23:07:11.451Z,67.53
2019-02-20T23:09:52.655Z,67.50
2019-02-20T23:12:37.512Z,67.87
2019-02-20T23:15:05.815Z,67.53
2019-02-20T23:17:32.238Z,66.82
2019-02-20T23:19:58.659Z,66.18
2019-02-20T23:22:25.272Z,66.28
2019-02-20T23:24:51.866Z,67.37
2019-02-20T23:27:18.531Z,66.54
2019-02-20T23:29:44.949Z,66.18
2019-02-20T23:32:11.371Z,66.19
2019-02-20T23:34:37.843Z,66.38
2019-02-20T23:37:04.266Z,67.32
2019-02-20T23:39:30.694Z,67.68
2019-02-20T23:41:57.114Z,68.09
2019-02-20T23:44:23.681Z,68.02
2019-02-20T23:46:50.085Z,68.01
2019-02-20T23:49:16.504Z,68.05
2019-02-20T23:51:42.928Z,68.58
2019-02-20T23:54:09.344Z,69.09
2019-02-20T23:56:36.009Z,68.90
2019-02-20T23:59:02.434Z,68.94
